Time;durP1;ratioP1;P1;durP2;ratioP2;P2;SDS_P1;SDS_P2;PMS_P1;PMS_P2;Temp;Humidity;BMP_temperature;BMP_pressure;BME280_temperature;BME280_humidity;BME280_pressure;Samples;Min_cycle;Max_cycle;Signal;HPM_P1;HPM_P2
2023/07/15 00:01:15;;;;;;;2.20;2.00;;;24.00;63.80;;;;;;4970143;28;20205;-71
2023/07/15 00:03:41;;;;;;;1.85;1.75;;;24.10;63.90;;;;;;4970563;28;20221;-71
2023/07/15 00:06:09;;;;;;;2.20;2.10;;;24.10;63.90;;;;;;4969527;28;20225;-71
2023/07/15 00:08:35;;;;;;;2.15;2.03;;;24.10;63.90;;;;;;4954130;28;20182;-71
2023/07/15 00:11:02;;;;;;;1.90;1.80;;;24.10;63.90;;;;;;4970350;28;20275;-71
2023/07/15 00:13:28;;;;;;;1.98;1.77;;;24.10;64.00;;;;;;4954739;28;20217;-72
2023/07/15 00:15:54;;;;;;;1.80;1.70;;;24.00;63.90;;;;;;4969780;28;20248;-71
2023/07/15 00:18:25;;;;;;;1.83;1.70;;;24.00;63.80;;;;;;4954549;28;20194;-71
2023/07/15 00:20:51;;;;;;;1.83;1.73;;;24.00;63.90;;;;;;4969835;28;20229;-71
2023/07/15 00:23:23;;;;;;;2.05;1.95;;;24.00;63.90;;;;;;4949645;29;20298;-71
2023/07/15 00:25:51;;;;;;;2.03;1.92;;;24.00;63.90;;;;;;4968356;28;20205;-72
2023/07/15 00:28:18;;;;;;;1.67;1.58;;;24.00;63.90;;;;;;4960903;28;20191;-72
2023/07/15 00:30:44;;;;;;;1.80;1.70;;;24.00;63.90;;;;;;4957205;28;20194;-71
2023/07/15 00:33:14;;;;;;;2.10;2.00;;;24.00;63.90;;;;;;4970748;28;20577;-71
2023/07/15 00:35:43;;;;;;;2.15;1.98;;;24.00;63.90;;;;;;4969505;28;20220;-71
2023/07/15 00:38:12;;;;;;;2.25;2.10;;;24.00;63.90;;;;;;4949422;28;20182;-71
2023/07/15 00:40:44;;;;;;;1.67;1.58;;;24.00;63.90;;;;;;4954693;28;20202;-71
2023/07/15 00:46:23;;;;;;;1.85;1.75;;;24.00;63.90;;;;;;4969890;28;20308;-72
2023/07/15 00:48:56;;;;;;;1.85;1.75;;;24.00;64.00;;;;;;4954134;28;20197;-72
2023/07/15 00:51:28;;;;;;;1.92;1.83;;;24.00;64.00;;;;;;4969808;28;20574;-71
2023/07/15 00:53:55;;;;;;;2.03;1.92;;;24.00;64.00;;;;;;4969786;28;20210;-71
2023/07/15 00:56:23;;;;;;;1.95;1.85;;;24.00;64.00;;;;;;4953853;28;20281;-71
2023/07/15 00:58:50;;;;;;;1.75;1.65;;;24.00;64.00;;;;;;4973443;28;20209;-71
2023/07/15 01:01:17;;;;;;;1.92;1.83;;;24.00;64.00;;;;;;4972633;28;20194;-71
2023/07/15 01:03:44;;;;;;;2.22;1.67;;;24.00;64.00;;;;;;4957667;28;20224;-71
2023/07/15 01:06:11;;;;;;;2.08;1.98;;;24.00;64.00;;;;;;4972687;28;20268;-71
2023/07/15 01:08:38;;;;;;;1.92;1.83;;;24.00;64.00;;;;;;4973106;28;20185;-71
2023/07/15 01:11:10;;;;;;;2.00;1.60;;;24.00;64.00;;;;;;4973507;28;20182;-71
2023/07/15 01:13:38;;;;;;;1.80;1.70;;;23.90;64.00;;;;;;4973721;28;20293;-71
2023/07/15 01:16:04;;;;;;;1.70;1.60;;;24.00;64.10;;;;;;4972323;28;20214;-72
2023/07/15 01:18:30;;;;;;;1.98;1.70;;;24.00;64.10;;;;;;4957234;28;20190;-71
2023/07/15 01:20:59;;;;;;;1.73;1.63;;;24.00;64.10;;;;;;4956971;28;20190;-71
2023/07/15 01:23:29;;;;;;;1.80;1.70;;;24.00;64.10;;;;;;4957287;28;20209;-70
2023/07/15 01:25:58;;;;;;;2.00;1.90;;;23.90;64.00;;;;;;4954118;28;20220;-71
2023/07/15 01:28:24;;;;;;;2.00;1.90;;;23.90;64.00;;;;;;4955764;28;20241;-71
2023/07/15 01:30:50;;;;;;;1.75;1.65;;;24.00;64.10;;;;;;4946229;28;20198;-71
2023/07/15 01:33:18;;;;;;;2.10;2.00;;;24.00;64.10;;;;;;4957364;28;20197;-71
2023/07/15 01:35:49;;;;;;;1.90;1.80;;;24.00;64.10;;;;;;4972313;28;20197;-71
2023/07/15 01:38:16;;;;;;;1.95;1.80;;;23.90;64.00;;;;;;4973061;28;20248;-71
2023/07/15 01:40:42;;;;;;;2.00;1.90;;;23.90;64.00;;;;;;4972926;28;20197;-71
2023/07/15 01:43:12;;;;;;;2.28;2.08;;;24.00;64.10;;;;;;4972754;28;20301;-71
2023/07/15 01:45:39;;;;;;;1.80;1.70;;;24.00;64.20;;;;;;4956207;28;20218;-71
2023/07/15 01:48:10;;;;;;;1.95;1.85;;;23.90;64.00;;;;;;4955900;28;20644;-71
2023/07/15 01:50:36;;;;;;;1.75;1.58;;;23.90;64.10;;;;;;4972931;28;20197;-70
2023/07/15 01:53:02;;;;;;;2.05;1.95;;;23.90;64.10;;;;;;4972596;28;20206;-70
2023/07/15 01:55:28;;;;;;;1.92;1.83;;;23.90;64.10;;;;;;4956248;28;20197;-72
2023/07/15 01:57:55;;;;;;;2.03;1.83;;;24.00;64.30;;;;;;4956727;28;20181;-71
2023/07/15 02:00:21;;;;;;;1.80;1.70;;;24.00;64.20;;;;;;4972515;28;20193;-71
2023/07/15 02:02:49;;;;;;;2.15;2.00;;;24.00;64.20;;;;;;4956836;28;20304;-71
2023/07/15 02:05:16;;;;;;;1.90;1.80;;;23.90;64.10;;;;;;4972034;28;20189;-71
2023/07/15 02:07:42;;;;;;;1.98;1.88;;;23.90;64.10;;;;;;4954106;28;20198;-71
2023/07/15 02:10:08;;;;;;;1.83;1.73;;;23.90;64.10;;;;;;4961458;28;20201;-71
2023/07/15 02:12:34;;;;;;;2.03;1.80;;;23.90;64.10;;;;;;4973104;28;20237;-71
2023/07/15 02:15:00;;;;;;;2.17;2.08;;;23.90;64.10;;;;;;4971377;28;20189;-71
2023/07/15 02:17:26;;;;;;;1.83;1.73;;;23.90;64.10;;;;;;4956476;28;20185;-71
2023/07/15 02:19:57;;;;;;;2.10;1.90;;;23.90;64.10;;;;;;4953384;28;20260;-71
2023/07/15 02:22:24;;;;;;;2.13;1.98;;;23.90;64.10;;;;;;4972128;28;20196;-71
2023/07/15 02:24:50;;;;;;;1.98;1.88;;;23.90;64.10;;;;;;4972435;28;20185;-71
2023/07/15 02:27:18;;;;;;;2.13;1.90;;;23.90;64.10;;;;;;4963986;28;20224;-71
2023/07/15 02:29:44;;;;;;;1.80;1.70;;;23.90;64.20;;;;;;4979559;28;20237;-71
2023/07/15 02:32:38;;;;;;;1.90;1.80;;;23.90;64.20;;;;;;4956427;28;20182;-71
2023/07/15 02:35:10;;;;;;;1.80;1.70;;;23.90;64.20;;;;;;4979137;28;20188;-71
2023/07/15 02:37:42;;;;;;;1.75;1.65;;;23.90;64.10;;;;;;4971290;28;20221;-71
2023/07/15 02:40:10;;;;;;;1.88;1.75;;;23.90;64.20;;;;;;4971901;28;20205;-71
2023/07/15 02:42:36;;;;;;;1.88;1.77;;;23.90;64.20;;;;;;4955626;28;20205;-71
2023/07/15 02:45:06;;;;;;;1.85;1.75;;;23.90;64.20;;;;;;4970861;28;20186;-71
2023/07/15 02:47:36;;;;;;;1.67;1.58;;;23.90;64.20;;;;;;4971471;28;20214;-70
2023/07/15 02:50:06;;;;;;;1.80;1.70;;;23.90;64.20;;;;;;4963577;28;20197;-71
2023/07/15 02:52:33;;;;;;;1.70;1.60;;;23.90;64.20;;;;;;4971031;28;20281;-70
2023/07/15 02:55:04;;;;;;;2.28;1.83;;;23.90;64.20;;;;;;4955260;28;20220;-71
2023/07/15 02:57:32;;;;;;;1.98;1.77;;;23.90;64.20;;;;;;4954031;28;20703;-71
2023/07/15 02:59:57;;;;;;;1.88;1.77;;;23.90;64.20;;;;;;4955074;28;20195;-70
2023/07/15 03:02:24;;;;;;;1.73;1.63;;;23.90;64.20;;;;;;4955354;28;20574;-71
2023/07/15 03:04:51;;;;;;;2.20;2.00;;;23.90;64.30;;;;;;4971046;28;20194;-71
2023/07/15 03:07:19;;;;;;;2.38;2.17;;;23.80;64.10;;;;;;4955119;28;20205;-70
2023/07/15 03:09:44;;;;;;;2.75;1.60;;;23.80;64.20;;;;;;4971416;28;20205;-71
2023/07/15 03:12:11;;;;;;;1.65;1.55;;;23.80;64.10;;;;;;4971189;28;20497;-71
2023/07/15 03:14:38;;;;;;;2.00;1.90;;;23.80;64.20;;;;;;4971888;28;20213;-71
2023/07/15 03:17:04;;;;;;;1.70;1.60;;;23.80;64.10;;;;;;4970908;28;20194;-71
2023/07/15 03:19:31;;;;;;;1.88;1.77;;;23.80;64.10;;;;;;4970523;28;20277;-70
2023/07/15 03:22:00;;;;;;;1.85;1.75;;;23.80;64.20;;;;;;4970964;28;20193;-71
2023/07/15 03:24:26;;;;;;;1.83;1.73;;;23.80;64.20;;;;;;4970671;28;20214;-70
2023/07/15 03:26:53;;;;;;;1.75;1.65;;;23.80;64.20;;;;;;4972038;28;20228;-71
2023/07/15 03:29:25;;;;;;;1.63;1.52;;;23.90;64.30;;;;;;4955148;28;20683;-71
2023/07/15 03:31:51;;;;;;;1.80;1.70;;;23.80;64.20;;;;;;4963212;28;20683;-70
2023/07/15 03:34:17;;;;;;;2.10;2.00;;;23.80;64.20;;;;;;4970117;28;20297;-71
2023/07/15 03:36:42;;;;;;;1.80;1.70;;;23.80;64.20;;;;;;4954791;28;20670;-70
2023/07/15 03:39:08;;;;;;;1.85;1.75;;;23.80;64.20;;;;;;4970509;28;20213;-71
2023/07/15 03:41:36;;;;;;;1.85;1.75;;;23.80;64.20;;;;;;4953884;28;20199;-71
2023/07/15 03:44:03;;;;;;;1.80;1.70;;;23.80;64.20;;;;;;4968378;28;20834;-71
2023/07/15 03:46:29;;;;;;;1.88;1.77;;;23.80;64.20;;;;;;4969996;28;20237;-71
2023/07/15 03:48:55;;;;;;;2.03;1.60;;;23.80;64.20;;;;;;4970374;28;20225;-71
2023/07/15 03:51:20;;;;;;;2.00;1.80;;;23.80;64.20;;;;;;4970851;28;20185;-71
2023/07/15 03:53:46;;;;;;;2.03;1.90;;;23.80;64.20;;;;;;4955030;28;20561;-71
2023/07/15 03:56:12;;;;;;;1.88;1.75;;;23.80;65.00;;;;;;4953634;28;20208;-71
2023/07/15 03:58:38;;;;;;;1.60;1.50;;;23.80;64.20;;;;;;4954714;28;20198;-71
2023/07/15 04:01:04;;;;;;;2.05;1.77;;;23.80;64.30;;;;;;4970287;28;20209;-71
2023/07/15 04:03:30;;;;;;;1.80;1.70;;;23.80;64.30;;;;;;4970895;28;20221;-72
2023/07/15 04:05:56;;;;;;;2.15;1.70;;;23.80;64.30;;;;;;4969711;28;20210;-72
2023/07/15 04:08:22;;;;;;;1.80;1.70;;;23.80;64.30;;;;;;4951845;28;20328;-71
2023/07/15 04:10:48;;;;;;;2.03;1.92;;;23.80;64.30;;;;;;4970425;28;20280;-72
2023/07/15 04:13:14;;;;;;;1.95;1.85;;;23.80;64.30;;;;;;4970511;28;20224;-72
2023/07/15 04:15:39;;;;;;;1.67;1.58;;;23.80;64.30;;;;;;4968948;28;20229;-71
2023/07/15 04:18:05;;;;;;;1.60;1.50;;;23.80;64.30;;;;;;4973180;28;20260;-71
2023/07/15 04:20:32;;;;;;;2.03;1.85;;;23.80;64.30;;;;;;4971324;28;20377;-71
2023/07/15 04:22:58;;;;;;;1.80;1.70;;;23.80;64.30;;;;;;4970495;28;20208;-72
2023/07/15 04:25:24;;;;;;;2.00;1.90;;;23.80;64.30;;;;;;4969282;28;20190;-71
2023/07/15 04:27:50;;;;;;;1.90;1.80;;;23.80;64.30;;;;;;4962583;28;20189;-71
2023/07/15 04:30:16;;;;;;;2.17;2.00;;;23.80;64.30;;;;;;4970620;28;20194;-71
2023/07/15 04:32:42;;;;;;;1.67;1.58;;;23.80;64.30;;;;;;4958289;28;20212;-71
2023/07/15 04:35:08;;;;;;;1.50;1.40;;;23.80;64.30;;;;;;4957111;28;20205;-71
2023/07/15 04:37:35;;;;;;;1.83;1.70;;;23.80;64.30;;;;;;4974557;28;20197;-71
2023/07/15 04:40:04;;;;;;;1.63;1.52;;;23.80;64.30;;;;;;4957399;28;20207;-71
2023/07/15 04:42:29;;;;;;;1.90;1.70;;;23.80;64.40;;;;;;4973933;28;20236;-71
2023/07/15 04:44:55;;;;;;;1.80;1.70;;;23.80;64.40;;;;;;4973028;28;20218;-71
2023/07/15 04:47:21;;;;;;;1.52;1.42;;;23.80;64.40;;;;;;4966430;28;20212;-71
2023/07/15 04:49:47;;;;;;;1.65;1.55;;;23.80;64.50;;;;;;4974000;28;20202;-70
2023/07/15 04:52:12;;;;;;;1.90;1.80;;;23.80;64.50;;;;;;4973965;28;20330;-71
2023/07/15 04:54:38;;;;;;;1.60;1.50;;;23.80;64.50;;;;;;4972982;28;20205;-71
2023/07/15 04:57:04;;;;;;;1.70;1.60;;;23.80;64.60;;;;;;4973702;28;20204;-71
2023/07/15 04:59:30;;;;;;;2.15;1.88;;;23.80;64.60;;;;;;4973668;28;20276;-71
2023/07/15 05:01:56;;;;;;;1.60;1.50;;;23.80;64.60;;;;;;4957851;28;20308;-71
2023/07/15 05:04:22;;;;;;;1.90;1.80;;;23.80;64.70;;;;;;4973388;28;20217;-70
2023/07/15 05:06:47;;;;;;;1.90;1.80;;;23.80;64.70;;;;;;4966838;28;20222;-71
2023/07/15 05:09:13;;;;;;;1.80;1.70;;;23.80;64.80;;;;;;4972973;28;20197;-71
2023/07/15 05:11:39;;;;;;;1.98;1.88;;;23.80;64.70;;;;;;4956730;28;20194;-70
2023/07/15 05:14:05;;;;;;;1.85;1.75;;;23.80;64.90;;;;;;4963236;28;20210;-71
2023/07/15 05:16:31;;;;;;;1.80;1.70;;;23.80;65.00;;;;;;4963066;28;20197;-71
2023/07/15 05:18:57;;;;;;;1.73;1.63;;;23.80;65.00;;;;;;4969991;28;20202;-71
2023/07/15 05:21:23;;;;;;;1.73;1.63;;;23.80;65.00;;;;;;4973368;28;20194;-71
2023/07/15 05:23:48;;;;;;;1.90;1.80;;;23.80;64.90;;;;;;4974026;28;20236;-71
2023/07/15 05:26:14;;;;;;;1.80;1.70;;;23.80;65.00;;;;;;4970466;28;20722;-71
2023/07/15 05:28:40;;;;;;;1.80;1.70;;;23.80;65.00;;;;;;4973365;28;20195;-71
2023/07/15 05:31:06;;;;;;;1.92;1.83;;;23.80;65.00;;;;;;4973222;28;20193;-71
2023/07/15 05:33:32;;;;;;;1.90;1.80;;;23.80;65.00;;;;;;4965317;28;20224;-71
2023/07/15 05:35:58;;;;;;;1.92;1.83;;;23.80;65.00;;;;;;4973015;28;20201;-70
2023/07/15 05:38:25;;;;;;;2.22;1.95;;;23.80;65.00;;;;;;4953768;28;20657;-70
2023/07/15 05:40:52;;;;;;;1.60;1.50;;;23.80;65.10;;;;;;4973439;28;20197;-69
2023/07/15 05:43:19;;;;;;;2.10;1.90;;;23.80;65.20;;;;;;4962654;28;20605;-70
2023/07/15 05:45:46;;;;;;;1.70;1.60;;;23.80;65.00;;;;;;4959672;28;20196;-71
2023/07/15 05:48:12;;;;;;;1.90;1.80;;;23.80;65.10;;;;;;4974181;28;20595;-70
2023/07/15 05:50:38;;;;;;;1.80;1.70;;;23.80;65.20;;;;;;4955227;28;20186;-70
2023/07/15 05:53:06;;;;;;;2.00;1.90;;;23.80;65.30;;;;;;4972260;28;20220;-70
2023/07/15 05:55:35;;;;;;;1.75;1.65;;;23.80;65.30;;;;;;4955649;28;20217;-70
2023/07/15 05:58:02;;;;;;;1.90;1.80;;;23.80;65.40;;;;;;4956198;28;20276;-70
2023/07/15 06:00:28;;;;;;;1.90;1.80;;;23.80;65.30;;;;;;4972150;28;20579;-70
2023/07/15 06:02:54;;;;;;;1.92;1.83;;;23.80;65.40;;;;;;4956626;28;20256;-70
2023/07/15 06:05:20;;;;;;;3.63;2.00;;;23.80;65.50;;;;;;4965926;28;20190;-70
2023/07/15 06:07:48;;;;;;;1.83;1.73;;;23.80;65.50;;;;;;4952592;28;20603;-70
2023/07/15 06:10:14;;;;;;;1.70;1.60;;;23.80;65.50;;;;;;4966228;28;20190;-70
2023/07/15 06:12:42;;;;;;;1.88;1.77;;;23.80;65.60;;;;;;4969634;28;20205;-69
2023/07/15 06:15:08;;;;;;;1.98;1.75;;;23.80;65.60;;;;;;4951741;28;20200;-70
2023/07/15 06:17:34;;;;;;;1.73;1.63;;;23.80;65.60;;;;;;4968612;28;20189;-70
2023/07/15 06:20:00;;;;;;;1.90;1.80;;;23.80;65.70;;;;;;4953806;28;20256;-69
2023/07/15 06:22:25;;;;;;;2.10;2.00;;;23.80;65.80;;;;;;4954811;28;20582;-70
2023/07/15 06:24:51;;;;;;;2.13;2.03;;;23.80;65.60;;;;;;4952069;28;20644;-69
2023/07/15 06:27:18;;;;;;;2.17;1.98;;;23.80;65.70;;;;;;4968218;28;20248;-70
2023/07/15 06:29:45;;;;;;;1.88;1.77;;;23.80;65.80;;;;;;4952808;28;20205;-69
2023/07/15 06:32:10;;;;;;;2.03;1.80;;;23.80;65.70;;;;;;4951892;28;20182;-69
2023/07/15 06:34:36;;;;;;;2.17;2.00;;;23.80;65.80;;;;;;4968011;28;20300;-69
2023/07/15 06:37:02;;;;;;;1.98;1.88;;;23.80;65.60;;;;;;4971460;28;20201;-70
2023/07/15 06:39:28;;;;;;;2.17;1.98;;;23.80;65.90;;;;;;4968582;28;20225;-70
2023/07/15 06:41:53;;;;;;;2.28;2.10;;;23.80;65.80;;;;;;4971149;28;20211;-70
2023/07/15 06:44:20;;;;;;;2.10;2.00;;;23.80;65.70;;;;;;4970867;28;20240;-70
2023/07/15 06:46:45;;;;;;;2.13;1.95;;;23.80;66.00;;;;;;4971086;28;20703;-69
2023/07/15 06:49:11;;;;;;;2.00;1.90;;;23.80;65.80;;;;;;4970867;28;20189;-70
2023/07/15 06:51:37;;;;;;;2.47;2.28;;;23.80;66.00;;;;;;4950913;29;20201;-69
2023/07/15 06:54:03;;;;;;;2.13;1.92;;;23.80;65.90;;;;;;4957415;28;20241;-68
2023/07/15 06:56:29;;;;;;;2.25;2.05;;;23.80;65.90;;;;;;4969762;28;20193;-70
2023/07/15 06:58:55;;;;;;;2.05;1.90;;;23.80;65.90;;;;;;4971005;28;20197;-70
2023/07/15 07:01:21;;;;;;;2.20;2.00;;;23.80;65.70;;;;;;4970563;28;20198;-70
2023/07/15 07:03:46;;;;;;;2.03;1.92;;;23.80;65.80;;;;;;4969470;28;20272;-70
2023/07/15 07:06:13;;;;;;;1.90;1.80;;;23.80;65.70;;;;;;4969109;28;20251;-70
2023/07/15 07:08:39;;;;;;;2.00;1.90;;;23.80;65.60;;;;;;4970234;28;20197;-71
2023/07/15 07:11:04;;;;;;;2.42;2.22;;;23.80;65.60;;;;;;4953211;28;20193;-71
2023/07/15 07:13:30;;;;;;;1.92;1.83;;;23.80;65.70;;;;;;4953290;28;20248;-71
2023/07/15 07:15:58;;;;;;;1.98;1.88;;;23.80;65.80;;;;;;4967912;28;20208;-70
2023/07/15 07:18:25;;;;;;;1.85;1.75;;;23.90;65.90;;;;;;4970029;28;20196;-69
2023/07/15 07:21:01;;;;;;;2.10;2.00;;;23.90;66.00;;;;;;4970024;28;20194;-71
2023/07/15 07:23:29;;;;;;;2.13;2.03;;;23.80;65.80;;;;;;4954348;28;20217;-71
2023/07/15 07:25:55;;;;;;;1.90;1.80;;;23.90;66.10;;;;;;4953615;28;20316;-71
2023/07/15 07:28:24;;;;;;;2.50;2.30;;;23.80;66.10;;;;;;4954418;28;20648;-71
2023/07/15 07:30:50;;;;;;;1.90;1.80;;;23.80;66.10;;;;;;4969910;28;20656;-70
2023/07/15 07:33:16;;;;;;;2.75;2.10;;;23.90;66.00;;;;;;4954316;28;20586;-70
2023/07/15 07:35:48;;;;;;;2.10;2.00;;;23.90;66.10;;;;;;4953425;28;20208;-72
2023/07/15 07:38:13;;;;;;;2.30;2.10;;;23.90;66.00;;;;;;4970899;28;20185;-71
2023/07/15 07:40:39;;;;;;;2.50;2.10;;;23.80;65.80;;;;;;4954597;28;20189;-71
2023/07/15 07:43:05;;;;;;;2.20;2.05;;;23.80;65.90;;;;;;4971173;28;20255;-71
2023/07/15 07:45:31;;;;;;;2.80;2.28;;;23.90;65.90;;;;;;4953441;28;20188;-71
2023/07/15 07:47:56;;;;;;;2.10;2.00;;;23.90;65.90;;;;;;4955087;28;20186;-72
2023/07/15 07:50:22;;;;;;;2.55;2.10;;;23.80;65.70;;;;;;4969629;28;20245;-71
2023/07/15 07:52:48;;;;;;;2.70;2.00;;;23.90;65.80;;;;;;4970311;28;20205;-72
2023/07/15 07:55:14;;;;;;;2.35;2.22;;;23.90;65.70;;;;;;4957092;28;20569;-70
2023/07/15 07:57:39;;;;;;;2.47;2.28;;;23.90;65.80;;;;;;4954135;28;20201;-72
2023/07/15 08:00:06;;;;;;;1.98;1.88;;;23.90;65.80;;;;;;4957036;28;20196;-72
2023/07/15 08:02:32;;;;;;;2.38;2.17;;;23.90;65.80;;;;;;4972249;28;20654;-72
2023/07/15 08:04:58;;;;;;;2.10;1.90;;;23.90;65.70;;;;;;4970790;28;20253;-73
2023/07/15 08:07:24;;;;;;;2.63;2.42;;;23.90;65.70;;;;;;4955459;28;20219;-72
2023/07/15 08:09:49;;;;;;;2.65;2.45;;;23.90;65.90;;;;;;4972928;28;20200;-73
2023/07/15 08:12:17;;;;;;;2.63;2.42;;;24.00;65.80;;;;;;4971291;28;20244;-72
2023/07/15 08:14:44;;;;;;;2.10;2.00;;;23.90;65.60;;;;;;4969751;28;20225;-72
2023/07/15 08:17:09;;;;;;;2.83;2.40;;;24.00;65.60;;;;;;4970537;28;20205;-71
2023/07/15 08:19:35;;;;;;;2.35;2.15;;;24.00;65.60;;;;;;4951004;29;20649;-72
2023/07/15 08:22:01;;;;;;;2.47;2.28;;;24.00;65.70;;;;;;4966396;28;20193;-72
2023/07/15 08:24:27;;;;;;;2.33;2.13;;;24.00;65.60;;;;;;4968937;28;20218;-72
2023/07/15 08:26:52;;;;;;;2.53;2.33;;;24.00;65.70;;;;;;4952973;28;20213;-71
2023/07/15 08:29:18;;;;;;;3.25;2.40;;;24.00;65.70;;;;;;4953369;28;20189;-71
2023/07/15 08:31:45;;;;;;;2.80;2.55;;;24.00;65.70;;;;;;4970022;28;20186;-71
2023/07/15 08:34:11;;;;;;;2.60;2.40;;;24.00;65.90;;;;;;4970016;28;20217;-71
2023/07/15 08:36:36;;;;;;;2.47;2.28;;;24.00;65.90;;;;;;4969336;28;20231;-71
2023/07/15 08:39:02;;;;;;;2.60;2.40;;;23.90;65.80;;;;;;4961461;28;20196;-71
2023/07/15 08:41:28;;;;;;;2.65;2.28;;;24.00;65.90;;;;;;4959666;28;20202;-71
2023/07/15 08:43:54;;;;;;;2.10;2.00;;;23.90;65.80;;;;;;4950395;29;20210;-71
2023/07/15 08:46:29;;;;;;;2.65;2.45;;;24.00;65.90;;;;;;4952257;28;20210;-71
2023/07/15 08:48:57;;;;;;;2.63;2.40;;;23.90;65.80;;;;;;4949140;28;20212;-71
2023/07/15 08:51:30;;;;;;;2.53;2.33;;;23.90;65.80;;;;;;4970693;28;20181;-71
2023/07/15 08:53:57;;;;;;;2.70;2.50;;;24.00;65.90;;;;;;4953713;28;20224;-71
2023/07/15 08:56:24;;;;;;;2.40;2.20;;;24.00;65.90;;;;;;4952186;28;20193;-71
2023/07/15 08:58:52;;;;;;;2.88;2.67;;;24.00;65.90;;;;;;4954035;28;20185;-71
2023/07/15 09:01:17;;;;;;;2.97;2.40;;;24.00;65.90;;;;;;4953204;28;20202;-70
2023/07/15 09:03:43;;;;;;;2.50;2.30;;;23.90;65.80;;;;;;4951333;28;20221;-72
2023/07/15 09:06:09;;;;;;;2.97;2.72;;;24.00;65.90;;;;;;4952475;28;20244;-71
2023/07/15 09:08:35;;;;;;;2.67;2.17;;;24.00;66.00;;;;;;4969206;28;20186;-71
2023/07/15 09:11:02;;;;;;;2.63;2.50;;;24.00;66.00;;;;;;4969309;28;20660;-71
2023/07/15 09:13:34;;;;;;;2.90;2.60;;;24.00;66.00;;;;;;4952952;28;20224;-72
2023/07/15 09:16:01;;;;;;;2.53;2.28;;;24.00;66.00;;;;;;4968741;28;20224;-71
2023/07/15 09:18:27;;;;;;;2.63;2.42;;;24.00;66.00;;;;;;4955232;28;20204;-71
2023/07/15 09:21:17;;;;;;;2.47;2.28;;;24.00;66.00;;;;;;4954180;28;20194;-71
2023/07/15 09:23:45;;;;;;;3.28;2.53;;;24.00;66.00;;;;;;4944545;28;20221;-70
2023/07/15 09:26:12;;;;;;;2.40;2.20;;;24.00;66.00;;;;;;4973431;28;20272;-71
2023/07/15 09:28:41;;;;;;;2.80;2.60;;;24.00;65.90;;;;;;4971051;28;20186;-71
2023/07/15 09:31:07;;;;;;;2.47;2.28;;;24.00;65.90;;;;;;4965155;28;20197;-71
2023/07/15 09:33:42;;;;;;;2.92;2.58;;;24.00;66.70;;;;;;4971728;28;20214;-71
2023/07/15 09:36:11;;;;;;;2.70;2.50;;;24.00;65.90;;;;;;4955939;28;20192;-71
2023/07/15 09:38:39;;;;;;;2.70;2.50;;;24.00;66.00;;;;;;4972265;28;20194;-70
2023/07/15 09:41:08;;;;;;;2.50;2.30;;;24.00;66.00;;;;;;4957041;28;20195;-71
2023/07/15 09:43:48;;;;;;;2.50;2.30;;;24.00;66.00;;;;;;4971667;28;20220;-71
2023/07/15 09:46:20;;;;;;;2.58;2.38;;;24.00;66.00;;;;;;4954875;28;20217;-71
2023/07/15 09:48:51;;;;;;;2.70;2.50;;;24.10;66.10;;;;;;4973871;28;20177;-71
2023/07/15 09:51:18;;;;;;;2.30;2.20;;;24.00;65.90;;;;;;4973439;28;20284;-71
2023/07/15 09:53:53;;;;;;;2.58;2.38;;;24.10;66.00;;;;;;4956215;28;20205;-71
2023/07/15 09:56:40;;;;;;;2.60;2.40;;;24.00;66.00;;;;;;4971418;28;20272;-71
2023/07/15 09:59:22;;;;;;;2.20;2.03;;;24.00;66.00;;;;;;4972231;28;20201;-71
2023/07/15 10:02:05;;;;;;;2.50;2.30;;;24.00;66.00;;;;;;4954626;28;20655;-71
2023/07/15 10:04:44;;;;;;;3.20;2.30;;;24.00;66.00;;;;;;4955470;28;20304;-71
2023/07/15 10:07:11;;;;;;;2.35;2.22;;;24.00;66.00;;;;;;4954579;28;20596;-72
2023/07/15 10:09:38;;;;;;;2.58;2.38;;;24.10;66.20;;;;;;4955159;28;20189;-71
2023/07/15 10:12:05;;;;;;;2.47;2.35;;;24.00;66.00;;;;;;4955303;28;20555;-71
2023/07/15 10:14:33;;;;;;;2.60;2.40;;;24.00;66.10;;;;;;4953585;28;20207;-70
2023/07/15 10:17:15;;;;;;;2.60;2.40;;;24.10;66.20;;;;;;4966554;28;20229;-71
2023/07/15 10:19:47;;;;;;;2.67;2.47;;;24.00;66.90;;;;;;4963668;28;20233;-71
2023/07/15 10:22:18;;;;;;;2.80;2.30;;;24.00;66.00;;;;;;4971247;28;20325;-70
2023/07/15 10:24:57;;;;;;;2.58;2.38;;;24.10;66.20;;;;;;4952890;28;20186;-71
2023/07/15 10:27:27;;;;;;;2.40;2.20;;;24.10;66.30;;;;;;4955554;28;20275;-71
2023/07/15 10:30:27;;;;;;;2.70;2.50;;;24.10;66.20;;;;;;4971436;28;20189;-71
2023/07/15 10:33:08;;;;;;;2.15;2.05;;;24.10;66.40;;;;;;4966110;28;20223;-71
2023/07/15 10:35:47;;;;;;;2.25;2.03;;;24.10;66.20;;;;;;4953656;28;20216;-71
2023/07/15 10:38:28;;;;;;;2.10;2.00;;;24.10;66.10;;;;;;4971102;28;20201;-71
2023/07/15 10:41:02;;;;;;;2.53;2.33;;;24.10;66.20;;;;;;4972497;28;20197;-71
2023/07/15 10:43:34;;;;;;;2.53;2.30;;;24.10;66.20;;;;;;4952059;28;20219;-71
2023/07/15 10:46:12;;;;;;;2.42;2.22;;;24.10;66.20;;;;;;4971890;28;20221;-71
2023/07/15 10:48:39;;;;;;;2.47;2.28;;;24.10;66.20;;;;;;4970650;28;20272;-70
2023/07/15 10:51:10;;;;;;;2.10;2.00;;;24.10;66.20;;;;;;4971274;28;20248;-71
2023/07/15 10:53:37;;;;;;;2.50;2.30;;;24.10;66.20;;;;;;4970525;28;20237;-71
2023/07/15 10:56:09;;;;;;;2.78;2.50;;;24.10;66.30;;;;;;4955307;28;20228;-70
2023/07/15 10:58:36;;;;;;;2.42;2.20;;;24.10;66.10;;;;;;4970562;28;20189;-71
2023/07/15 11:01:05;;;;;;;2.70;2.50;;;24.10;66.10;;;;;;4972177;28;20213;-72
2023/07/15 11:03:35;;;;;;;2.60;2.40;;;24.10;66.10;;;;;;4971045;28;20217;-71
2023/07/15 11:06:02;;;;;;;2.50;2.30;;;24.10;66.00;;;;;;4968627;28;20221;-71
2023/07/15 11:08:29;;;;;;;2.85;2.20;;;24.10;66.10;;;;;;4985633;28;20190;-72
2023/07/15 11:11:01;;;;;;;2.50;2.20;;;24.10;66.00;;;;;;4970498;28;20190;-71
2023/07/15 11:13:27;;;;;;;2.13;2.03;;;24.10;65.90;;;;;;4970108;28;20218;-72
2023/07/15 11:15:54;;;;;;;2.35;2.15;;;24.10;66.00;;;;;;4969723;28;20268;-71
2023/07/15 11:18:23;;;;;;;2.40;2.20;;;24.10;66.00;;;;;;4951865;28;20179;-71
2023/07/15 11:20:55;;;;;;;2.40;2.25;;;24.10;65.90;;;;;;4954286;28;20244;-71
2023/07/15 11:23:21;;;;;;;2.30;2.20;;;24.10;65.90;;;;;;4969922;28;20201;-71
2023/07/15 11:25:47;;;;;;;2.35;2.20;;;24.10;65.90;;;;;;4953989;28;20185;-71
2023/07/15 11:28:13;;;;;;;2.83;2.63;;;24.10;65.90;;;;;;4970978;28;20376;-71
2023/07/15 11:30:45;;;;;;;2.75;2.55;;;24.10;65.90;;;;;;4970239;28;20232;-71
2023/07/15 11:33:12;;;;;;;2.47;2.17;;;24.10;65.40;;;;;;4970177;28;20304;-71
2023/07/15 11:35:39;;;;;;;2.47;2.28;;;24.20;65.50;;;;;;4953791;28;20182;-71
2023/07/15 11:38:14;;;;;;;2.60;2.40;;;24.10;65.40;;;;;;4956904;28;20278;-71
2023/07/15 11:40:58;;;;;;;2.80;2.60;;;24.10;65.50;;;;;;4970715;28;20247;-71
2023/07/15 11:43:27;;;;;;;2.38;2.17;;;24.20;65.70;;;;;;4969035;28;20331;-71
2023/07/15 11:45:58;;;;;;;2.50;2.30;;;24.20;65.70;;;;;;4953243;28;20224;-71
2023/07/15 11:48:34;;;;;;;2.50;2.10;;;24.10;65.60;;;;;;4967665;28;20189;-71
2023/07/15 11:51:07;;;;;;;2.70;2.50;;;24.20;65.80;;;;;;4967301;28;20268;-71
2023/07/15 11:53:41;;;;;;;2.10;2.00;;;24.20;65.70;;;;;;4969799;28;20214;-71
2023/07/15 11:56:07;;;;;;;2.72;2.35;;;24.20;65.80;;;;;;4955330;28;20194;-71
2023/07/15 11:58:59;;;;;;;2.30;2.10;;;24.20;65.80;;;;;;4952787;28;20245;-71
2023/07/15 12:01:26;;;;;;;2.20;2.10;;;24.20;65.60;;;;;;4950620;28;20212;-71
2023/07/15 12:03:53;;;;;;;2.85;2.65;;;24.20;65.70;;;;;;4953692;28;20244;-71
2023/07/15 12:06:25;;;;;;;2.20;2.10;;;24.20;65.50;;;;;;4954451;28;20596;-72
2023/07/15 12:09:02;;;;;;;2.55;2.33;;;24.20;65.50;;;;;;4968582;28;20208;-70
2023/07/15 12:11:33;;;;;;;2.08;1.98;;;24.20;65.50;;;;;;4959769;28;20221;-71
2023/07/15 12:14:01;;;;;;;2.65;2.45;;;24.20;65.40;;;;;;4969590;28;20212;-71
2023/07/15 12:16:30;;;;;;;2.10;2.00;;;24.20;65.40;;;;;;4952022;28;20201;-70
2023/07/15 12:18:58;;;;;;;2.10;1.90;;;24.20;65.40;;;;;;4955691;28;20204;-71
2023/07/15 12:21:24;;;;;;;2.70;2.45;;;24.20;65.50;;;;;;4969655;28;20194;-71
2023/07/15 12:23:52;;;;;;;2.25;2.08;;;24.20;65.40;;;;;;4953677;28;20201;-71
2023/07/15 12:26:19;;;;;;;2.50;2.30;;;24.20;65.50;;;;;;4969002;28;20236;-71
2023/07/15 12:28:46;;;;;;;2.40;2.22;;;24.20;65.60;;;;;;4952844;28;20268;-71
2023/07/15 12:31:14;;;;;;;2.78;2.58;;;24.20;65.50;;;;;;4969222;28;20679;-71
2023/07/15 12:33:41;;;;;;;2.15;1.95;;;24.20;65.40;;;;;;4955555;28;20209;-71
2023/07/15 12:36:10;;;;;;;2.30;2.10;;;24.20;65.50;;;;;;4968609;28;20197;-71
2023/07/15 12:38:37;;;;;;;2.60;2.40;;;24.20;65.40;;;;;;4969251;28;20220;-71
2023/07/15 12:41:05;;;;;;;2.50;2.30;;;24.20;65.40;;;;;;4966990;28;20597;-71
2023/07/15 12:43:31;;;;;;;2.30;2.20;;;24.20;65.40;;;;;;4950509;28;20210;-71
2023/07/15 12:46:00;;;;;;;2.03;1.92;;;24.20;65.40;;;;;;4952893;28;20287;-72
2023/07/15 12:48:27;;;;;;;2.47;2.28;;;24.20;65.40;;;;;;4969295;28;20225;-71
2023/07/15 12:50:53;;;;;;;2.92;2.50;;;24.20;65.40;;;;;;4968642;28;20190;-71
2023/07/15 12:53:22;;;;;;;2.63;2.38;;;24.20;65.50;;;;;;4972275;28;20213;-71
2023/07/15 12:55:49;;;;;;;2.30;2.20;;;24.20;65.40;;;;;;4972140;28;20205;-71